sensor_id;sensor_type;location;lat;lon;timestamp;pressure;altitude;pressure_sealevel;temperature;humidity
10470;BME280;5282;47.052;15.458;2023-03-23T00:01:11;97200.41;;;9.40;100.00
10470;BME280;5282;47.052;15.458;2023-03-23T00:03:42;97204.63;;;9.35;100.00
10470;BME280;5282;47.052;15.458;2023-03-23T00:06:10;97194.69;;;9.35;100.00
10470;BME280;5282;47.052;15.458;2023-03-23T00:08:43;97195.88;;;9.24;100.00
10470;BME280;5282;47.052;15.458;2023-03-23T00:11:12;97200.41;;;9.24;100.00
10470;BME280;5282;47.052;15.458;2023-03-23T00:13:41;97207.97;;;9.20;100.00
10470;BME280;5282;47.052;15.458;2023-03-23T00:16:10;97207.13;;;9.20;100.00
10470;BME280;5282;47.052;15.458;2023-03-23T00:18:45;97206.97;;;9.21;100.00
10470;BME280;5282;47.052;15.458;2023-03-23T00:21:12;97203.75;;;9.26;100.00
10470;BME280;5282;47.052;15.458;2023-03-23T00:23:40;97201.22;;;9.16;100.00
10470;BME280;5282;47.052;15.458;2023-03-23T00:26:11;97196.22;;;9.13;100.00
10470;BME280;5282;47.052;15.458;2023-03-23T00:28:39;97193.84;;;9.18;100.00
10470;BME280;5282;47.052;15.458;2023-03-23T00:31:07;97197.91;;;9.14;100.00
10470;BME280;5282;47.052;15.458;2023-03-23T00:33:37;97196.38;;;9.11;100.00
10470;BME280;5282;47.052;15.458;2023-03-23T00:36:09;97203.91;;;9.00;100.00
10470;BME280;5282;47.052;15.458;2023-03-23T00:38:37;97194.84;;;9.01;100.00
10470;BME280;5282;47.052;15.458;2023-03-23T00:41:05;97190.50;;;9.00;100.00
10470;BME280;5282;47.052;15.458;2023-03-23T00:43:33;97193.84;;;9.02;100.00
10470;BME280;5282;47.052;15.458;2023-03-23T00:46:02;97189.44;;;8.92;100.00
10470;BME280;5282;47.052;15.458;2023-03-23T00:48:35;97197.50;;;8.84;100.00
10470;BME280;5282;47.052;15.458;2023-03-23T00:51:07;97189.31;;;8.86;100.00
10470;BME280;5282;47.052;15.458;2023-03-23T00:53:37;97193.50;;;8.88;100.00
10470;BME280;5282;47.052;15.458;2023-03-23T00:56:05;97189.13;;;8.79;100.00
10470;BME280;5282;47.052;15.458;2023-03-23T00:58:32;97189.44;;;8.76;100.00
10470;BME280;5282;47.052;15.458;2023-03-23T01:01:00;97185.56;;;8.70;100.00
10470;BME280;5282;47.052;15.458;2023-03-23T01:03:26;97176.00;;;8.68;100.00
10470;BME280;5282;47.052;15.458;2023-03-23T01:05:55;97172.66;;;8.66;100.00
10470;BME280;5282;47.052;15.458;2023-03-23T01:08:24;97169.59;;;8.60;100.00
10470;BME280;5282;47.052;15.458;2023-03-23T01:10:51;97166.41;;;8.65;100.00
10470;BME280;5282;47.052;15.458;2023-03-23T01:13:19;97160.72;;;8.60;100.00
10470;BME280;5282;47.052;15.458;2023-03-23T01:15:48;97158.19;;;8.58;100.00
10470;BME280;5282;47.052;15.458;2023-03-23T01:18:15;97163.72;;;8.57;100.00
10470;BME280;5282;47.052;15.458;2023-03-23T01:20:42;97156.19;;;8.52;100.00
10470;BME280;5282;47.052;15.458;2023-03-23T01:23:09;97161.88;;;8.57;100.00
10470;BME280;5282;47.052;15.458;2023-03-23T01:25:37;97160.84;;;8.50;100.00
10470;BME280;5282;47.052;15.458;2023-03-23T01:28:04;97159.69;;;8.53;100.00
10470;BME280;5282;47.052;15.458;2023-03-23T01:30:33;97163.91;;;8.55;100.00
10470;BME280;5282;47.052;15.458;2023-03-23T01:33:00;97157.53;;;8.56;100.00
10470;BME280;5282;47.052;15.458;2023-03-23T01:35:27;97161.53;;;8.52;100.00
10470;BME280;5282;47.052;15.458;2023-03-23T01:37:54;97161.72;;;8.51;100.00
10470;BME280;5282;47.052;15.458;2023-03-23T01:40:21;97156.13;;;8.44;100.00
10470;BME280;5282;47.052;15.458;2023-03-23T01:42:49;97149.44;;;8.48;100.00
10470;BME280;5282;47.052;15.458;2023-03-23T01:45:26;97149.06;;;8.43;100.00
10470;BME280;5282;47.052;15.458;2023-03-23T01:48:01;97150.06;;;8.42;100.00
10470;BME280;5282;47.052;15.458;2023-03-23T01:50:32;97143.53;;;8.44;100.00
10470;BME280;5282;47.052;15.458;2023-03-23T01:53:05;97142.72;;;8.44;100.00
10470;BME280;5282;47.052;15.458;2023-03-23T01:55:35;97144.03;;;8.31;100.00
10470;BME280;5282;47.052;15.458;2023-03-23T01:58:06;97135.47;;;8.28;100.00
10470;BME280;5282;47.052;15.458;2023-03-23T02:00:33;97139.97;;;8.27;100.00
10470;BME280;5282;47.052;15.458;2023-03-23T02:03:01;97135.59;;;8.26;100.00
10470;BME280;5282;47.052;15.458;2023-03-23T02:05:34;97139.47;;;8.24;100.00
10470;BME280;5282;47.052;15.458;2023-03-23T02:08:04;97133.25;;;8.23;100.00
10470;BME280;5282;47.052;15.458;2023-03-23T02:10:35;97142.31;;;8.22;100.00
10470;BME280;5282;47.052;15.458;2023-03-23T02:13:05;97138.59;;;8.23;100.00
10470;BME280;5282;47.052;15.458;2023-03-23T02:15:43;97139.44;;;8.15;100.00
10470;BME280;5282;47.052;15.458;2023-03-23T02:18:19;97140.25;;;8.08;100.00
10470;BME280;5282;47.052;15.458;2023-03-23T02:27:04;97147.13;;;8.10;100.00
10470;BME280;5282;47.052;15.458;2023-03-23T02:29:54;97144.59;;;8.09;100.00
10470;BME280;5282;47.052;15.458;2023-03-23T02:32:46;97137.56;;;8.08;100.00
10470;BME280;5282;47.052;15.458;2023-03-23T02:35:26;97136.69;;;7.99;100.00
10470;BME280;5282;47.052;15.458;2023-03-23T02:37:58;97139.53;;;7.97;100.00
10470;BME280;5282;47.052;15.458;2023-03-23T02:40:30;97142.22;;;7.97;100.00
10470;BME280;5282;47.052;15.458;2023-03-23T02:43:00;97144.53;;;7.92;100.00
10470;BME280;5282;47.052;15.458;2023-03-23T02:45:30;97142.00;;;7.91;100.00
10470;BME280;5282;47.052;15.458;2023-03-23T02:48:02;97144.31;;;7.85;100.00
10470;BME280;5282;47.052;15.458;2023-03-23T02:50:35;97144.69;;;7.91;100.00
10470;BME280;5282;47.052;15.458;2023-03-23T02:53:05;97149.84;;;7.84;100.00
10470;BME280;5282;47.052;15.458;2023-03-23T02:55:36;97140.03;;;7.66;100.00
10470;BME280;5282;47.052;15.458;2023-03-23T02:58:07;97139.38;;;7.64;100.00
10470;BME280;5282;47.052;15.458;2023-03-23T03:00:35;97142.25;;;7.45;100.00
10470;BME280;5282;47.052;15.458;2023-03-23T03:03:04;97137.06;;;7.43;100.00
10470;BME280;5282;47.052;15.458;2023-03-23T03:05:39;97137.34;;;7.40;100.00
10470;BME280;5282;47.052;15.458;2023-03-23T03:08:13;97141.94;;;7.48;100.00
10470;BME280;5282;47.052;15.458;2023-03-23T03:10:49;97142.03;;;7.38;100.00
10470;BME280;5282;47.052;15.458;2023-03-23T03:13:31;97142.84;;;7.30;100.00
10470;BME280;5282;47.052;15.458;2023-03-23T03:16:05;97145.34;;;7.32;100.00
10470;BME280;5282;47.052;15.458;2023-03-23T03:18:39;97136.97;;;7.08;100.00
10470;BME280;5282;47.052;15.458;2023-03-23T03:21:12;97139.72;;;7.17;100.00
10470;BME280;5282;47.052;15.458;2023-03-23T03:23:42;97137.34;;;7.14;100.00
10470;BME280;5282;47.052;15.458;2023-03-23T03:26:13;97139.38;;;7.20;100.00
10470;BME280;5282;47.052;15.458;2023-03-23T03:28:43;97139.72;;;7.17;100.00
10470;BME280;5282;47.052;15.458;2023-03-23T03:31:15;97137.03;;;7.17;100.00
10470;BME280;5282;47.052;15.458;2023-03-23T03:33:43;97136.72;;;7.20;100.00
10470;BME280;5282;47.052;15.458;2023-03-23T03:36:18;97138.81;;;7.08;100.00
10470;BME280;5282;47.052;15.458;2023-03-23T03:38:49;97134.47;;;6.71;100.00
10470;BME280;5282;47.052;15.458;2023-03-23T03:41:17;97140.34;;;6.74;100.00
10470;BME280;5282;47.052;15.458;2023-03-23T03:43:45;97147.25;;;6.77;100.00
10470;BME280;5282;47.052;15.458;2023-03-23T03:46:12;97137.84;;;6.91;100.00
10470;BME280;5282;47.052;15.458;2023-03-23T03:48:39;97141.75;;;6.78;100.00
10470;BME280;5282;47.052;15.458;2023-03-23T03:51:06;97143.25;;;6.81;100.00
10470;BME280;5282;47.052;15.458;2023-03-23T03:53:35;97142.44;;;6.81;100.00
10470;BME280;5282;47.052;15.458;2023-03-23T03:56:03;97142.25;;;6.82;100.00
10470;BME280;5282;47.052;15.458;2023-03-23T03:58:31;97142.25;;;6.82;100.00
10470;BME280;5282;47.052;15.458;2023-03-23T04:00:58;97146.78;;;6.82;100.00
10470;BME280;5282;47.052;15.458;2023-03-23T04:03:25;97147.63;;;6.82;100.00
10470;BME280;5282;47.052;15.458;2023-03-23T04:05:53;97150.16;;;6.66;100.00
10470;BME280;5282;47.052;15.458;2023-03-23T04:08:21;97148.31;;;6.66;100.00
10470;BME280;5282;47.052;15.458;2023-03-23T04:10:50;97151.59;;;6.60;100.00
10470;BME280;5282;47.052;15.458;2023-03-23T04:13:18;97165.88;;;6.51;100.00
10470;BME280;5282;47.052;15.458;2023-03-23T04:15:46;97167.09;;;6.38;100.00
10470;BME280;5282;47.052;15.458;2023-03-23T04:18:14;97160.50;;;6.51;100.00
10470;BME280;5282;47.052;15.458;2023-03-23T04:20:42;97165.50;;;6.45;100.00
10470;BME280;5282;47.052;15.458;2023-03-23T04:23:10;97164.56;;;6.55;100.00
10470;BME280;5282;47.052;15.458;2023-03-23T04:25:37;97165.31;;;6.47;100.00
10470;BME280;5282;47.052;15.458;2023-03-23T04:28:09;97157.19;;;6.21;100.00
10470;BME280;5282;47.052;15.458;2023-03-23T04:30:36;97160.66;;;6.03;100.00
10470;BME280;5282;47.052;15.458;2023-03-23T04:33:03;97171.75;;;5.98;100.00
10470;BME280;5282;47.052;15.458;2023-03-23T04:35:31;97155.69;;;6.08;100.00
10470;BME280;5282;47.052;15.458;2023-03-23T04:37:59;97160.66;;;6.03;100.00
10470;BME280;5282;47.052;15.458;2023-03-23T04:40:26;97160.47;;;6.14;100.00
10470;BME280;5282;47.052;15.458;2023-03-23T04:42:53;97162.69;;;6.19;100.00
10470;BME280;5282;47.052;15.458;2023-03-23T04:45:24;97158.97;;;6.02;100.00
10470;BME280;5282;47.052;15.458;2023-03-23T04:47:51;97164.50;;;6.18;100.00
10470;BME280;5282;47.052;15.458;2023-03-23T04:50:26;97173.22;;;6.21;100.00
10470;BME280;5282;47.052;15.458;2023-03-23T04:52:53;97167.78;;;6.12;100.00
10470;BME280;5282;47.052;15.458;2023-03-23T04:55:22;97169.22;;;6.07;100.00
10470;BME280;5282;47.052;15.458;2023-03-23T04:57:49;97169.16;;;6.16;100.00
10470;BME280;5282;47.052;15.458;2023-03-23T05:00:17;97172.97;;;6.14;100.00
10470;BME280;5282;47.052;15.458;2023-03-23T05:02:47;97164.41;;;6.10;100.00
10470;BME280;5282;47.052;15.458;2023-03-23T05:05:18;97159.63;;;6.14;100.00
10470;BME280;5282;47.052;15.458;2023-03-23T05:07:46;97171.81;;;6.16;100.00
10470;BME280;5282;47.052;15.458;2023-03-23T05:10:14;97161.50;;;6.04;100.00
10470;BME280;5282;47.052;15.458;2023-03-23T05:12:42;97164.03;;;5.95;100.00
10470;BME280;5282;47.052;15.458;2023-03-23T05:15:11;97165.47;;;5.90;100.00
10470;BME280;5282;47.052;15.458;2023-03-23T05:17:39;97173.72;;;6.06;100.00
10470;BME280;5282;47.052;15.458;2023-03-23T05:20:13;97172.44;;;6.10;100.00
10470;BME280;5282;47.052;15.458;2023-03-23T05:22:40;97168.28;;;6.26;100.00
10470;BME280;5282;47.052;15.458;2023-03-23T05:25:08;97173.56;;;6.36;100.00
10470;BME280;5282;47.052;15.458;2023-03-23T05:27:36;97178.38;;;6.32;100.00
10470;BME280;5282;47.052;15.458;2023-03-23T05:30:03;97176.41;;;6.34;100.00
10470;BME280;5282;47.052;15.458;2023-03-23T05:32:31;97171.75;;;6.36;100.00
10470;BME280;5282;47.052;15.458;2023-03-23T05:34:58;97176.03;;;6.47;100.00
10470;BME280;5282;47.052;15.458;2023-03-23T05:37:28;97182.47;;;6.54;100.00
10470;BME280;5282;47.052;15.458;2023-03-23T05:39:59;97183.00;;;6.58;100.00
10470;BME280;5282;47.052;15.458;2023-03-23T05:42:31;97183.47;;;6.71;100.00
10470;BME280;5282;47.052;15.458;2023-03-23T05:45:00;97188.13;;;6.69;100.00
10470;BME280;5282;47.052;15.458;2023-03-23T05:47:27;97192.19;;;6.73;100.00
10470;BME280;5282;47.052;15.458;2023-03-23T05:49:54;97192.75;;;6.77;100.00
10470;BME280;5282;47.052;15.458;2023-03-23T05:52:21;97198.63;;;6.81;100.00
10470;BME280;5282;47.052;15.458;2023-03-23T05:54:50;97198.53;;;6.90;100.00
10470;BME280;5282;47.052;15.458;2023-03-23T05:57:18;97191.88;;;6.94;100.00
10470;BME280;5282;47.052;15.458;2023-03-23T05:59:47;97199.00;;;7.04;100.00
10470;BME280;5282;47.052;15.458;2023-03-23T06:02:15;97204.91;;;7.07;100.00
10470;BME280;5282;47.052;15.458;2023-03-23T06:04:42;97208.34;;;7.18;100.00
10470;BME280;5282;47.052;15.458;2023-03-23T06:07:10;97204.03;;;7.25;100.00
10470;BME280;5282;47.052;15.458;2023-03-23T06:09:40;97208.09;;;7.29;100.00
10470;BME280;5282;47.052;15.458;2023-03-23T06:12:08;97208.47;;;7.34;100.00
10470;BME280;5282;47.052;15.458;2023-03-23T06:14:38;97214.44;;;7.46;100.00
10470;BME280;5282;47.052;15.458;2023-03-23T06:17:07;97207.81;;;7.59;100.00
10470;BME280;5282;47.052;15.458;2023-03-23T06:19:34;97213.72;;;7.62;100.00
10470;BME280;5282;47.052;15.458;2023-03-23T06:22:01;97216.75;;;7.67;100.00
10470;BME280;5282;47.052;15.458;2023-03-23T06:24:29;97222.47;;;7.72;100.00
10470;BME280;5282;47.052;15.458;2023-03-23T06:27:02;97209.56;;;7.68;100.00
10470;BME280;5282;47.052;15.458;2023-03-23T06:29:30;97215.53;;;7.88;100.00
10470;BME280;5282;47.052;15.458;2023-03-23T06:32:00;97221.09;;;7.95;100.00
10470;BME280;5282;47.052;15.458;2023-03-23T06:34:31;97224.31;;;7.98;100.00
10470;BME280;5282;47.052;15.458;2023-03-23T06:36:58;97213.63;;;8.07;100.00
10470;BME280;5282;47.052;15.458;2023-03-23T06:39:26;97219.41;;;8.20;100.00
10470;BME280;5282;47.052;15.458;2023-03-23T06:41:53;97218.41;;;8.21;100.00
10470;BME280;5282;47.052;15.458;2023-03-23T06:44:20;97221.44;;;8.26;100.00
10470;BME280;5282;47.052;15.458;2023-03-23T06:46:48;97218.13;;;8.32;100.00
10470;BME280;5282;47.052;15.458;2023-03-23T06:49:15;97215.75;;;8.29;100.00
10470;BME280;5282;47.052;15.458;2023-03-23T06:51:42;97219.13;;;8.31;100.00
10470;BME280;5282;47.052;15.458;2023-03-23T06:54:11;97224.13;;;8.34;100.00
10470;BME280;5282;47.052;15.458;2023-03-23T06:56:38;97223.75;;;8.47;100.00
10470;BME280;5282;47.052;15.458;2023-03-23T06:59:07;97223.59;;;8.57;100.00
10470;BME280;5282;47.052;15.458;2023-03-23T07:01:35;97232.00;;;8.62;100.00
10470;BME280;5282;47.052;15.458;2023-03-23T07:04:05;97232.38;;;8.76;100.00
10470;BME280;5282;47.052;15.458;2023-03-23T07:06:32;97229.72;;;8.84;100.00
10470;BME280;5282;47.052;15.458;2023-03-23T07:08:59;97228.06;;;8.91;100.00
10470;BME280;5282;47.052;15.458;2023-03-23T07:11:29;97231.44;;;9.02;100.00
10470;BME280;5282;47.052;15.458;2023-03-23T07:13:56;97232.81;;;9.14;100.00
10470;BME280;5282;47.052;15.458;2023-03-23T07:16:23;97231.31;;;9.28;100.00
10470;BME280;5282;47.052;15.458;2023-03-23T07:18:50;97228.44;;;9.30;100.00
10470;BME280;5282;47.052;15.458;2023-03-23T07:21:18;97231.81;;;9.40;100.00
10470;BME280;5282;47.052;15.458;2023-03-23T07:23:47;97224.44;;;9.59;100.00
10470;BME280;5282;47.052;15.458;2023-03-23T07:26:14;97223.56;;;9.66;100.00
10470;BME280;5282;47.052;15.458;2023-03-23T07:28:42;97221.72;;;9.75;100.00
10470;BME280;5282;47.052;15.458;2023-03-23T07:31:09;97224.75;;;9.72;100.00
10470;BME280;5282;47.052;15.458;2023-03-23T07:33:36;97221.03;;;9.90;100.00
10470;BME280;5282;47.052;15.458;2023-03-23T07:36:07;97219.09;;;10.15;100.00
10470;BME280;5282;47.052;15.458;2023-03-23T07:38:35;97219.44;;;10.20;100.00
10470;BME280;5282;47.052;15.458;2023-03-23T07:41:03;97227.31;;;10.38;100.00
10470;BME280;5282;47.052;15.458;2023-03-23T07:43:30;97232.31;;;10.49;100.00
10470;BME280;5282;47.052;15.458;2023-03-23T07:45:57;97228.56;;;10.59;100.00
10470;BME280;5282;47.052;15.458;2023-03-23T07:48:24;97231.28;;;10.59;100.00
10470;BME280;5282;47.052;15.458;2023-03-23T07:50:51;97235.53;;;10.76;100.00
10470;BME280;5282;47.052;15.458;2023-03-23T07:53:18;97233.38;;;11.03;100.00
10470;BME280;5282;47.052;15.458;2023-03-23T07:55:48;97226.97;;;11.27;100.00
10470;BME280;5282;47.052;15.458;2023-03-23T07:58:15;97223.06;;;11.15;100.00
10470;BME280;5282;47.052;15.458;2023-03-23T08:00:45;97228.59;;;11.14;100.00
10470;BME280;5282;47.052;15.458;2023-03-23T08:03:14;97226.63;;;11.31;100.00
10470;BME280;5282;47.052;15.458;2023-03-23T08:05:42;97225.50;;;11.25;100.00
10470;BME280;5282;47.052;15.458;2023-03-23T08:08:09;97228.34;;;11.47;100.00
10470;BME280;5282;47.052;15.458;2023-03-23T08:10:36;97224.22;;;11.59;100.00
10470;BME280;5282;47.052;15.458;2023-03-23T08:13:04;97222.97;;;11.70;100.00
10470;BME280;5282;47.052;15.458;2023-03-23T08:15:33;97224.66;;;11.86;100.00
10470;BME280;5282;47.052;15.458;2023-03-23T08:18:03;97228.47;;;11.92;100.00
10470;BME280;5282;47.052;15.458;2023-03-23T08:20:31;97220.66;;;11.97;100.00
10470;BME280;5282;47.052;15.458;2023-03-23T08:22:58;97219.13;;;12.02;100.00
10470;BME280;5282;47.052;15.458;2023-03-23T08:25:28;97218.75;;;12.06;100.00
10470;BME280;5282;47.052;15.458;2023-03-23T08:27:58;97210.97;;;12.11;100.00
10470;BME280;5282;47.052;15.458;2023-03-23T08:30:29;97210.84;;;12.34;100.00
10470;BME280;5282;47.052;15.458;2023-03-23T08:32:58;97205.53;;;12.41;100.00
10470;BME280;5282;47.052;15.458;2023-03-23T08:35:25;97209.19;;;12.48;100.00
10470;BME280;5282;47.052;15.458;2023-03-23T08:37:52;97207.84;;;12.59;100.00
10470;BME280;5282;47.052;15.458;2023-03-23T08:40:21;97204.47;;;12.72;100.00
10470;BME280;5282;47.052;15.458;2023-03-23T08:42:50;97205.66;;;12.84;100.00
10470;BME280;5282;47.052;15.458;2023-03-23T08:45:18;97202.16;;;12.69;100.00
10470;BME280;5282;47.052;15.458;2023-03-23T08:47:48;97207.50;;;12.99;99.36
10470;BME280;5282;47.052;15.458;2023-03-23T08:50:22;97216.47;;;13.21;97.30
10470;BME280;5282;47.052;15.458;2023-03-23T08:52:50;97219.00;;;12.86;95.67
10470;BME280;5282;47.052;15.458;2023-03-23T08:55:17;97213.94;;;13.19;95.03
10470;BME280;5282;47.052;15.458;2023-03-23T08:57:44;97209.47;;;13.26;93.48
10470;BME280;5282;47.052;15.458;2023-03-23T09:00:15;97212.47;;;13.38;94.27
10470;BME280;5282;47.052;15.458;2023-03-23T09:02:45;97222.31;;;13.24;95.78
10470;BME280;5282;47.052;15.458;2023-03-23T09:05:15;97217.06;;;13.38;97.58
10470;BME280;5282;47.052;15.458;2023-03-23T09:07:44;97205.28;;;13.67;89.83
10470;BME280;5282;47.052;15.458;2023-03-23T09:10:12;97205.63;;;13.86;87.01
10470;BME280;5282;47.052;15.458;2023-03-23T09:12:40;97216.19;;;13.81;87.63
10470;BME280;5282;47.052;15.458;2023-03-23T09:15:10;97213.84;;;13.99;87.51
10470;BME280;5282;47.052;15.458;2023-03-23T09:17:39;97210.47;;;14.26;87.36
10470;BME280;5282;47.052;15.458;2023-03-23T09:20:08;97214.75;;;14.48;81.24
10470;BME280;5282;47.052;15.458;2023-03-23T09:22:39;97210.84;;;14.58;79.31
10470;BME280;5282;47.052;15.458;2023-03-23T09:25:07;97210.88;;;14.23;77.53
10470;BME280;5282;47.052;15.458;2023-03-23T09:27:36;97210.03;;;14.22;82.66
10470;BME280;5282;47.052;15.458;2023-03-23T09:30:05;97205.69;;;14.63;78.26
10470;BME280;5282;47.052;15.458;2023-03-23T09:32:33;97202.44;;;14.81;75.80
10470;BME280;5282;47.052;15.458;2023-03-23T09:35:02;97208.31;;;14.91;75.71
10470;BME280;5282;47.052;15.458;2023-03-23T09:37:30;97198.56;;;15.10;74.07
10470;BME280;5282;47.052;15.458;2023-03-23T09:39:59;97199.44;;;15.24;74.18
10470;BME280;5282;47.052;15.458;2023-03-23T09:42:36;97202.34;;;15.36;72.72
10470;BME280;5282;47.052;15.458;2023-03-23T09:45:14;97196.53;;;15.33;70.44
10470;BME280;5282;47.052;15.458;2023-03-23T09:47:48;97191.94;;;15.33;70.98
10470;BME280;5282;47.052;15.458;2023-03-23T09:50:19;97184.66;;;15.54;71.25
10470;BME280;5282;47.052;15.458;2023-03-23T09:52:52;97182.56;;;15.83;71.19
10470;BME280;5282;47.052;15.458;2023-03-23T09:55:21;97182.78;;;16.15;68.61
10470;BME280;5282;47.052;15.458;2023-03-23T09:57:53;97186.78;;;16.64;63.34
10470;BME280;5282;47.052;15.458;2023-03-23T10:00:25;97175.34;;;17.08;59.08
10470;BME280;5282;47.052;15.458;2023-03-23T10:03:00;97172.88;;;17.32;57.49
10470;BME280;5282;47.052;15.458;2023-03-23T10:05:33;97173.22;;;17.10;57.08
10470;BME280;5282;47.052;15.458;2023-03-23T10:08:02;97173.31;;;17.61;53.02
10470;BME280;5282;47.052;15.458;2023-03-23T10:10:45;97168.88;;;17.66;52.96
10470;BME280;5282;47.052;15.458;2023-03-23T10:13:21;97171.78;;;17.71;52.57
10470;BME280;5282;47.052;15.458;2023-03-23T10:15:54;97163.38;;;17.48;53.09
10470;BME280;5282;47.052;15.458;2023-03-23T10:18:35;97159.13;;;17.52;54.00
10470;BME280;5282;47.052;15.458;2023-03-23T10:21:03;97158.31;;;17.51;52.28
10470;BME280;5282;47.052;15.458;2023-03-23T10:23:54;97150.34;;;17.50;50.81
10470;BME280;5282;47.052;15.458;2023-03-23T10:26:34;97144.81;;;17.63;52.40
10470;BME280;5282;47.052;15.458;2023-03-23T10:29:12;97141.97;;;18.02;51.63
10470;BME280;5282;47.052;15.458;2023-03-23T10:31:43;97137.69;;;18.13;54.26
10470;BME280;5282;47.052;15.458;2023-03-23T10:34:16;97142.69;;;18.16;51.39
10470;BME280;5282;47.052;15.458;2023-03-23T10:36:54;97138.63;;;18.74;47.40
10470;BME280;5282;47.052;15.458;2023-03-23T10:39:27;97145.31;;;18.78;47.27
10470;BME280;5282;47.052;15.458;2023-03-23T10:42:01;97142.13;;;18.63;45.59
10470;BME280;5282;47.052;15.458;2023-03-23T10:44:33;97133.28;;;19.29;44.89
10470;BME280;5282;47.052;15.458;2023-03-23T10:47:02;97133.75;;;18.95;46.00
10470;BME280;5282;47.052;15.458;2023-03-23T10:49:34;97133.91;;;19.31;44.38
10470;BME280;5282;47.052;15.458;2023-03-23T10:52:12;97133.72;;;19.80;45.35
10470;BME280;5282;47.052;15.458;2023-03-23T10:54:51;97123.22;;;20.48;44.09
10470;BME280;5282;47.052;15.458;2023-03-23T10:57:25;97124.97;;;20.66;42.61
10470;BME280;5282;47.052;15.458;2023-03-23T10:59:59;97128.63;;;20.19;44.47
10470;BME280;5282;47.052;15.458;2023-03-23T11:02:29;97128.50;;;20.38;43.58
10470;BME280;5282;47.052;15.458;2023-03-23T11:04:59;97124.97;;;21.07;42.46
10470;BME280;5282;47.052;15.458;2023-03-23T11:07:29;97126.13;;;21.74;40.51
10470;BME280;5282;47.052;15.458;2023-03-23T11:10:03;97125.03;;;21.58;41.73
10470;BME280;5282;47.052;15.458;2023-03-23T11:12:35;97122.91;;;21.60;39.40
10470;BME280;5282;47.052;15.458;2023-03-23T11:15:23;97124.59;;;21.49;39.81
10470;BME280;5282;47.052;15.458;2023-03-23T11:18:02;97130.91;;;20.63;40.10
10470;BME280;5282;47.052;15.458;2023-03-23T11:20:34;97124.13;;;21.06;39.80
10470;BME280;5282;47.052;15.458;2023-03-23T11:23:09;97133.53;;;21.73;39.86
10470;BME280;5282;47.052;15.458;2023-03-23T11:25:52;97137.22;;;21.50;38.30
10470;BME280;5282;47.052;15.458;2023-03-23T11:28:22;97133.41;;;21.05;40.19
10470;BME280;5282;47.052;15.458;2023-03-23T11:30:53;97129.59;;;21.06;38.48
10470;BME280;5282;47.052;15.458;2023-03-23T11:33:21;97135.84;;;19.66;40.06
10470;BME280;5282;47.052;15.458;2023-03-23T11:35:52;97126.03;;;20.12;40.72
10470;BME280;5282;47.052;15.458;2023-03-23T11:38:23;97122.47;;;19.88;41.00
10470;BME280;5282;47.052;15.458;2023-03-23T11:40:54;97119.16;;;19.98;41.30
10470;BME280;5282;47.052;15.458;2023-03-23T11:43:23;97123.91;;;19.24;41.52
10470;BME280;5282;47.052;15.458;2023-03-23T11:46:03;97120.72;;;19.27;41.73
10470;BME280;5282;47.052;15.458;2023-03-23T11:48:35;97126.19;;;19.39;42.19
10470;BME280;5282;47.052;15.458;2023-03-23T11:51:12;97125.00;;;19.47;41.28
10470;BME280;5282;47.052;15.458;2023-03-23T11:53:47;97110.66;;;19.40;42.05
10470;BME280;5282;47.052;15.458;2023-03-23T11:56:23;97106.69;;;19.90;42.23
10470;BME280;5282;47.052;15.458;2023-03-23T11:58:55;97110.44;;;19.65;42.18
10470;BME280;5282;47.052;15.458;2023-03-23T12:01:36;97113.63;;;19.50;41.35
10470;BME280;5282;47.052;15.458;2023-03-23T12:04:27;97112.47;;;19.70;40.88
10470;BME280;5282;47.052;15.458;2023-03-23T12:07:03;97114.81;;;20.38;40.35
10470;BME280;5282;47.052;15.458;2023-03-23T12:09:41;97116.16;;;21.05;39.13
10470;BME280;5282;47.052;15.458;2023-03-23T12:12:19;97115.44;;;20.80;39.22
10470;BME280;5282;47.052;15.458;2023-03-23T12:14:56;97109.25;;;21.48;38.71
10470;BME280;5282;47.052;15.458;2023-03-23T12:17:32;97099.44;;;22.03;38.25
10470;BME280;5282;47.052;15.458;2023-03-23T12:20:14;97096.75;;;22.26;36.98
10470;BME280;5282;47.052;15.458;2023-03-23T12:22:59;97086.75;;;21.80;37.56
10470;BME280;5282;47.052;15.458;2023-03-23T12:25:47;97085.22;;;22.46;36.96
10470;BME280;5282;47.052;15.458;2023-03-23T12:28:27;97081.50;;;22.57;35.93
10470;BME280;5282;47.052;15.458;2023-03-23T12:31:05;97086.34;;;21.37;38.27
10470;BME280;5282;47.052;15.458;2023-03-23T12:33:45;97078.78;;;21.96;37.15
10470;BME280;5282;47.052;15.458;2023-03-23T12:36:25;97081.38;;;21.34;38.31
10470;BME280;5282;47.052;15.458;2023-03-23T12:39:12;97078.06;;;21.49;38.47
10470;BME280;5282;47.052;15.458;2023-03-23T12:41:45;97080.38;;;21.75;38.37
10470;BME280;5282;47.052;15.458;2023-03-23T12:44:21;97087.31;;;21.99;38.26
10470;BME280;5282;47.052;15.458;2023-03-23T12:47:07;97077.03;;;21.04;40.71
10470;BME280;5282;47.052;15.458;2023-03-23T12:49:42;97073.75;;;21.53;39.65
10470;BME280;5282;47.052;15.458;2023-03-23T12:52:17;97062.53;;;21.72;38.69
10470;BME280;5282;47.052;15.458;2023-03-23T12:54:51;97058.56;;;22.19;38.22
10470;BME280;5282;47.052;15.458;2023-03-23T12:57:27;97059.00;;;22.33;38.80
10470;BME280;5282;47.052;15.458;2023-03-23T13:00:12;97051.97;;;21.98;38.86
10470;BME280;5282;47.052;15.458;2023-03-23T13:02:46;97051.22;;;22.47;37.89
10470;BME280;5282;47.052;15.458;2023-03-23T13:05:29;97043.59;;;22.76;38.04
10470;BME280;5282;47.052;15.458;2023-03-23T13:08:02;97029.06;;;23.03;36.16
10470;BME280;5282;47.052;15.458;2023-03-23T13:10:34;97029.56;;;23.00;36.29
10470;BME280;5282;47.052;15.458;2023-03-23T13:13:02;97025.28;;;21.20;37.80
10470;BME280;5282;47.052;15.458;2023-03-23T13:15:37;97030.66;;;20.69;39.84
10470;BME280;5282;47.052;15.458;2023-03-23T13:18:23;97025.59;;;21.40;39.70
10470;BME280;5282;47.052;15.458;2023-03-23T13:20:55;97017.81;;;21.15;39.70
10470;BME280;5282;47.052;15.458;2023-03-23T13:23:28;97015.19;;;21.20;38.67
10470;BME280;5282;47.052;15.458;2023-03-23T13:26:00;97018.31;;;21.63;38.32